• Join FlightAware (Why Join?)
  • Login
  • US Flag 
12:22PM EDT


 

Airport Tracker/Info


-or-


 

Live Flight TrackerFlight Track Log ✈ G-VIIS ✈ 22-Apr-2013 ✈ EGLL / LHR - KATL

Flight Track Log - Related Links

Times and Time Zones

All times are in EDT time to prevent confusion due to time zone crossing. See the G-VIIS flight status page for this flight to view local times or setup timezone preferences in your user account.

Time Position Orientation Groundspeed Altitude Reporting Facility
EDT Latitude Longitude Course Direction KTS MPH feet Rate Location/Type
11:14AM 51.4770 -0.5120 268° West 178 205 1,500  Level FlightAware
11:14AM 51.4757 -0.5423 266° West 196 226 1,900 1,200 Climbing FlightAware ADS-B
11:14AM 51.4750 -0.5475 258° West 204 235 1,900 960 Level FlightAware ADS-B
11:15AM 51.4716 -0.5692 256° West 219 252 2,200 1,380 Climbing FlightAware ADS-B
11:15AM 51.4683 -0.5893 255° West 232 267 2,500 1,920 Climbing FlightAware ADS-B
11:15AM 51.4640 -0.6155 255° West 236 272 3,100 2,520 Climbing FlightAware ADS-B
11:15AM 51.4608 -0.6333 254° West 237 273 3,600 2,640 Climbing FlightAware ADS-B
11:15AM 51.4568 -0.6458 243° Southwest 239 275 3,900 2,280 Climbing FlightAware ADS-B
11:15AM 51.4534 -0.6529 232° Southwest 244 281 4,100 1,980 Climbing FlightAware ADS-B
11:16AM 51.4505 -0.6576 225° Southwest 245 282 4,200 1,980 Climbing FlightAware ADS-B
11:16AM 51.4437 -0.6678 223° Southwest 248 285 4,500 2,340 Climbing FlightAware ADS-B
11:16AM 51.4311 -0.6866 223° Southwest 248 285 5,100 2,400 Climbing FlightAware ADS-B
11:16AM 51.4181 -0.7061 223° Southwest 253 291 5,700 2,280 Climbing FlightAware ADS-B
11:16AM 51.4047 -0.7258 223° Southwest 259 298 6,300 1,740 Climbing FlightAware ADS-B
11:17AM 51.3907 -0.7460 222° Southwest 271 312 6,600 1,500 Climbing FlightAware ADS-B
11:17AM 51.3760 -0.7668 222° Southwest 279 321 7,100 1,860 Climbing FlightAware ADS-B
11:17AM 51.3602 -0.7886 221° Southwest 284 327 7,600 2,100 Climbing FlightAware ADS-B
11:17AM 51.3450 -0.8095 221° Southwest 286 329 8,200 2,160 Climbing FlightAware ADS-B
11:18AM 51.3298 -0.8306 221° Southwest 289 333 8,700 2,160 Climbing FlightAware ADS-B
11:18AM 51.3143 -0.8519 221° Southwest 291 335 9,300 2,100 Climbing FlightAware ADS-B
11:18AM 51.2981 -0.8742 221° Southwest 294 338 9,800 1,620 Climbing FlightAware ADS-B
11:19AM 51.2661 -0.9185 221° Southwest 312 359 10,600 1,140 Climbing FlightAware ADS-B
11:19AM 51.2316 -0.9663 221° Southwest 341 392 11,000 -1,140 Climbing FlightAware ADS-B
11:20AM 51.2088 -0.9979 221° Southwest 350 403 9,700 1,200 Descending FlightAware UK
11:20AM 51.1946 -1.0173 221° Southwest 360 414 11,600 6,000 Climbing FlightAware ADS-B
11:20AM 51.1806 -1.0379 223° Southwest 361 415 12,000 2,160 Climbing FlightAware ADS-B
11:20AM 51.1730 -1.0524 230° Southwest 355 409 12,300 -240 Climbing FlightAware ADS-B
11:20AM 51.1568 -1.0909 230° Southwest 340 391 11,900 3,780 Descending FlightAware UK
11:21AM 51.1471 -1.1157 230° Southwest 327 376 14,200 5,160 Climbing FlightAware ADS-B
11:21AM 51.1289 -1.1614 238° Southwest 328 377 15,000 1,860 Climbing FlightAware ADS-B
11:21AM 51.1030 -1.2257 237° Southwest 332 382 15,900  Climbing FlightAware ADS-B
11:22AM 51.0886 -1.2619 237° Southwest 336 387 15,000 1,560 Descending FlightAware UK
11:22AM 51.0778 -1.2888 237° Southwest 343 395 16,700 600 Climbing FlightAware ADS-B
11:22AM 51.0629 -1.3259 237° Southwest 356 410 15,300 660 Descending FlightAware UK
11:23AM 51.0483 -1.3628 237° Southwest 367 422 17,100 660 Climbing FlightAware ADS-B
11:23AM 51.0249 -1.4222 237° Southwest 382 440 15,800 720 Descending FlightAware UK
11:23AM 51.0201 -1.4348 237° Southwest 385 443 17,500 1,740 Climbing FlightAware ADS-B
11:23AM 51.0023 -1.4800 237° Southwest 392 451 16,500 1,500 Descending FlightAware UK
11:24AM 50.9902 -1.5111 237° Southwest 392 451 18,300 1,320 Climbing FlightAware ADS-B
11:24AM 50.9679 -1.5682 237° Southwest 396 456 17,300 1,500 Descending FlightAware UK
11:24AM 50.9594 -1.5900 237° Southwest 399 459 19,100 1,380 Climbing FlightAware ADS-B
11:24AM 50.9386 -1.6430 237° Southwest 402 463 18,000 1,500 Descending FlightAware UK
11:25AM 50.9283 -1.6669 237° Southwest 406 467 19,900 3,780 Climbing FlightAware ADS-B
11:25AM 50.8967 -1.7433 237° Southwest 411 473 20,600 1,320 Climbing FlightAware ADS-B
11:26AM 50.8624 -1.8220 235° Southwest 417 480 21,300 -540 Climbing FlightAware ADS-B
11:26AM 50.8441 -1.8671 235° Southwest 416 479 20,200 1,320 Descending FlightAware UK
11:26AM 50.8369 -1.8934 235° Southwest 412 474 21,900 1,200 Climbing FlightAware ADS-B
11:26AM 50.8259 -1.9339 235° Southwest 418 481 20,700 1,500 Descending FlightAware UK
11:26AM 50.8208 -1.9598 235° Southwest 409 471 22,500 3,600 Climbing FlightAware ADS-B
11:27AM 50.8065 -2.0474 256° West 410 472 23,100 -480 Climbing FlightAware ADS-B
11:27AM 50.7945 -2.1234 256° West 426 490 22,100 1,260 Descending FlightAware UK
11:28AM 50.7913 -2.1433 256° West 415 478 23,800 1,200 Climbing FlightAware ADS-B
11:28AM 50.7834 -2.1939 256° West 432 497 22,600 1,320 Descending FlightAware UK
11:28AM 50.7755 -2.2438 256° West 419 482 24,600 1,320 Climbing FlightAware ADS-B
11:28AM 50.7665 -2.3010 256° West 436 502 23,400 1,260 Descending FlightAware UK
11:29AM 50.7594 -2.3450 256° West 421 484 25,300 960 Climbing FlightAware ADS-B
11:29AM 50.7493 -2.4080 256° West 444 511 24,000 540 Descending FlightAware UK
11:29AM 50.7470 -2.4210 256° West 426 490 25,600 5,340 Climbing FlightAware
11:29AM 50.7401 -2.4648 256° West 428 493 25,700 300 Climbing FlightAware ADS-B
11:30AM 50.7270 -2.5460 256° West 425 489 25,800 120 Climbing FlightAware
11:30AM 50.7216 -2.5788 255° West 427 491 25,800 -2,940 Level FlightAware ADS-B
11:30AM 50.7112 -2.6436 255° West 444 511 24,500 720 Descending FlightAware UK
11:31AM 50.7050 -2.6810 255° West 425 489 26,300 2,640 Climbing FlightAware
11:31AM 50.6850 -2.8040 256° West 430 495 27,100 -300 Climbing FlightAware
11:32AM 50.6739 -2.8792 256° West 452 520 26,000 1,020 Descending FlightAware UK
11:32AM 50.6710 -2.9390 256° West 430 495 27,900 1,140 Climbing FlightAware
11:32AM 50.6670 -3.0099 256° West 460 529 26,800 -1,380 Descending FlightAware UK
11:33AM 50.6638 -3.0662 265° West 462 532 27,100 4,680 Climbing FlightAware UK
11:33AM 50.6640 -3.0650 265° West 434 499 28,600 3,600 Climbing FlightAware
11:33AM 50.6572 -3.1758 265° West 436 502 29,200 -780 Climbing FlightAware ADS-B
11:34AM 50.6537 -3.2365 265° West 466 536 28,000 -900 Descending FlightAware UK
11:34AM 50.6476 -3.3312 264° West 468 539 28,500 3,300 Climbing FlightAware UK
11:34AM 50.6470 -3.3350 264° West 441 507 30,000 7,500 Climbing FlightAware
11:34AM 50.6454 -3.3714 266° West 444 511 30,000 -3,780 Level FlightAware ADS-B
11:35AM 50.6420 -3.4287 266° West 480 552 28,500  Descending FlightAware UK
11:35AM 50.6390 -3.4730 266° West 459 528 30,000 3,600 Climbing FlightAware
11:35AM 50.6371 -3.5133 266° West 461 531 30,000 -3,480 Level FlightAware ADS-B
11:35AM 50.6337 -3.5691 266° West 492 566 28,500  Descending FlightAware UK
11:35AM 50.6314 -3.6168 266° West 466 536 30,000 1,860 Climbing FlightAware ADS-B
11:36AM 50.6254 -3.7273 265° West 466 536 30,000 -1,740 Level FlightAware ADS-B
11:36AM 50.6217 -3.7915 265° West 496 571 28,500  Descending FlightAware UK
11:37AM 50.6183 -3.8549 265° West 468 539 30,000  Climbing FlightAware ADS-B
11:37AM 50.6150 -3.9130 265° West 496 571 28,500  Descending FlightAware UK
11:37AM 50.6118 -3.9822 265° West 468 539 30,000  Climbing FlightAware ADS-B
11:38AM 50.6090 -4.0343 265° West 496 571 28,500 -2,760 Descending FlightAware UK
11:38AM 50.6059 -4.0953 266° West 496 571 28,500  Level FlightAware UK
11:38AM 50.6028 -4.1560 265° West 496 571 28,500 3,060 Level FlightAware UK
11:38AM 50.6020 -4.1800 265° West 465 535 30,000  Climbing FlightAware
11:39AM 50.5976 -4.2571 265° West 498 573 28,500  Descending FlightAware UK
11:39AM 50.5940 -4.3278 265° West 465 535 30,000  Climbing FlightAware ADS-B
11:39AM 50.5902 -4.3982 265° West 496 571 28,500 -2,400 Descending FlightAware UK
11:40AM 50.5872 -4.4585 266° West 494 568 28,500 4,680 Level FlightAware UK
11:40AM 50.5880 -4.4490 266° West 465 535 30,000  Climbing FlightAware
11:40AM 50.5843 -4.5190 266° West 494 568 28,500  Descending FlightAware UK
11:40AM 50.5812 -4.5558 266° West 469 540 30,000  Climbing FlightAware ADS-B
11:40AM 50.5736 -4.6198 266° West 496 571 28,500 -2,520 Descending FlightAware UK
11:41AM 50.5642 -4.6795 256° West 496 571 28,500 2,040 Level FlightAware UK
11:41AM 50.5490 -4.7550 256° West 474 545 30,000  Climbing FlightAware
11:41AM 50.5364 -4.8172 256° West 494 568 28,500 -2,580 Descending FlightAware UK
11:42AM 50.5248 -4.8764 253° West 494 568 28,500 3,900 Level FlightAware UK
11:42AM 50.5230 -4.8870 253° West 475 547 30,000  Climbing FlightAware
11:42AM 50.5092 -4.9544 253° West 494 568 28,500 -2,460 Descending FlightAware UK
11:42AM 50.4973 -5.0136 252° West 494 568 28,500 4,260 Level FlightAware UK
11:42AM 50.4960 -5.0170 252° West 476 548 30,000  Climbing FlightAware
11:43AM 50.4813 -5.0923 252° West 494 568 28,500  Descending FlightAware UK
11:43AM 50.4670 -5.1620 252° West 476 548 30,000  Climbing FlightAware
11:44AM 50.4530 -5.2301 252° West 496 571 28,500  Descending FlightAware UK
11:44AM 50.4400 -5.2940 252° West 475 547 30,000  Climbing FlightAware
11:44AM 50.4249 -5.3678 252° West 494 568 28,500  Descending FlightAware UK
11:45AM 50.4130 -5.4250 252° West 476 548 30,000  Climbing FlightAware
11:45AM 50.4002 -5.4855 252° West 496 571 28,500 -2,280 Descending FlightAware UK
11:45AM 50.3837 -5.5637 252° West 496 571 28,500 3,060 Level FlightAware UK
11:45AM 50.3820 -5.5750 252° West 475 547 30,000  Climbing FlightAware
11:46AM 50.3673 -5.6420 252° West 496 571 28,500 -2,460 Descending FlightAware UK
11:46AM 50.3549 -5.7007 252° West 496 571 28,500 4,260 Level FlightAware UK
11:46AM 50.3550 -5.7020 252° West 474 545 30,000  Climbing FlightAware
11:46AM 50.3425 -5.7592 252° West 498 573 28,500 -2,760 Descending FlightAware UK
11:47AM 50.3303 -5.8177 252° West 496 571 28,500 3,000 Level FlightAware UK
11:47AM 50.3240 -5.8480 252° West 471 542 30,000  Climbing FlightAware
11:47AM 50.3099 -5.9150 252° West 496 571 28,500 -2,520 Descending FlightAware UK
11:47AM 50.2980 -5.9726 252° West 494 568 28,500 4,080 Level FlightAware UK
11:47AM 50.2970 -5.9790 252° West 472 543 30,000  Climbing FlightAware
11:48AM 50.2818 -6.0502 252° West 494 568 28,500 -2,400 Descending FlightAware UK
11:48AM 50.2697 -6.1083 252° West 496 571 28,500 4,500 Level FlightAware UK
11:48AM 50.2700 -6.1070 252° West 472 543 30,000  Climbing FlightAware
11:48AM 50.2533 -6.1858 252° West 496 571 28,500 -2,280 Descending FlightAware UK
11:49AM 50.2410 -6.2439 252° West 496 571 28,500 3,900 Level FlightAware UK
11:49AM 50.2400 -6.2490 252° West 471 542 30,000  Climbing FlightAware
11:49AM 50.2207 -6.3407 252° West 494 568 28,500  Descending FlightAware UK
11:49AM 50.2120 -6.3790 252° West 472 543 30,000  Climbing FlightAware
11:50AM 50.1999 -6.4373 252° West 496 571 28,500 -2,760 Descending FlightAware UK
11:50AM 50.1874 -6.4952 251° West 496 571 28,500 3,600 Level FlightAware UK
11:50AM 50.1840 -6.5100 251° West 471 542 30,000  Climbing FlightAware
11:51AM 50.1665 -6.5917 251° West 496 571 28,500  Descending FlightAware UK
11:51AM 50.1560 -6.6380 251° West 472 543 30,000  Climbing FlightAware
11:51AM 50.1540 -6.6496 251° West 496 571 28,500 -3,600 Descending FlightAware UK
11:51AM 50.1372 -6.7267 251° West 496 571 28,500  Level FlightAware UK
11:52AM 50.1247 -6.7846 251° West 496 571 28,500 4,500 Level FlightAware UK
11:52AM 50.1250 -6.7810 251° West 472 543 30,000  Climbing FlightAware
11:52AM 50.1038 -6.8811 251° West 496 571 28,500  Descending FlightAware UK
11:52AM 50.0930 -6.9320 251° West 472 543 30,000  Climbing FlightAware
11:53AM 50.0740 -7.0158 251° West 496 571 28,500  Descending FlightAware UK
11:53AM 50.0610 -7.0730 251° West 472 543 30,000  Climbing FlightAware
11:53AM 50.0486 -7.1305 251° West 496 571 28,500 -2,700 Descending FlightAware UK
11:54AM 50.0358 -7.1882 251° West 496 571 28,500 4,680 Level FlightAware UK
11:54AM 50.0360 -7.1890 251° West 472 543 30,000  Climbing FlightAware
11:54AM 50.0230 -7.2458 251° West 496 571 28,500 -2,580 Descending FlightAware UK
11:54AM 50.0102 -7.3035 251° West 496 571 28,500 3,180 Level FlightAware UK
11:54AM 50.0050 -7.3280 251° West 472 543 30,000  Climbing FlightAware
11:55AM 49.9888 -7.3995 251° West 494 568 28,500 -2,400 Descending FlightAware UK
11:55AM 49.9757 -7.4570 251° West 496 571 28,500 4,500 Level FlightAware UK
11:55AM 49.9770 -7.4520 251° West 473 544 30,000  Climbing FlightAware
11:55AM 49.9584 -7.5337 251° West 496 571 28,500 -2,280 Descending FlightAware UK
11:56AM 49.9454 -7.5912 251° West 496 571 28,500 3,900 Level FlightAware UK
11:56AM 49.9450 -7.5950 251° West 471 542 30,000  Climbing FlightAware
11:56AM 49.9280 -7.6678 251° West 494 568 28,500 -2,460 Descending FlightAware UK
11:56AM 49.9149 -7.7251 250° West 494 568 28,500 4,260 Level FlightAware UK
11:56AM 49.9150 -7.7260 250° West 473 544 30,000  Climbing FlightAware
11:57AM 49.9018 -7.7824 250° West 494 568 28,500 -2,340 Descending FlightAware UK
11:57AM 49.8844 -7.8590 251° West 492 566 28,500 3,000 Level FlightAware UK
11:57AM 49.8810 -7.8720 251° West 475 547 30,000  Climbing FlightAware
11:58AM 49.8668 -7.9356 251° West 492 566 28,500 -2,520 Descending FlightAware UK
11:58AM 49.8534 -7.9932 250° West 492 566 28,500 4,080 Level FlightAware UK
11:58AM 49.8550 -7.9860 250° West 475 547 30,000  Climbing FlightAware
11:58AM 49.8356 -8.0705 250° West 494 568 28,500 -2,400 Descending FlightAware UK
11:59AM 49.8222 -8.1281 250° West 494 568 28,500 3,600 Level FlightAware UK
11:59AM 49.8200 -8.1390 250° West 480 552 30,000  Climbing FlightAware
11:59AM 49.8041 -8.2059 250° West 494 568 28,500 -2,580 Descending FlightAware UK
11:59AM 49.7904 -8.2642 250° West 492 566 28,500 3,900 Level FlightAware UK
11:59AM 49.7890 -8.2700 250° West 480 552 30,000  Climbing FlightAware
12:00PM 49.7723 -8.3420 250° West 494 568 28,500 -2,460 Descending FlightAware UK
12:00PM 49.7586 -8.4002 250° West 494 568 28,500 4,260 Level FlightAware UK
12:00PM 49.7580 -8.4030 250° West 482 555 30,000  Climbing FlightAware
12:00PM 49.7448 -8.4584 250° West 494 568 28,500 -2,760 Descending FlightAware UK
12:01PM 49.7310 -8.5165 250° West 494 568 28,500 3,000 Level FlightAware UK
12:01PM 49.7240 -8.5470 250° West 482 555 30,000  Climbing FlightAware
12:01PM 49.7081 -8.6134 250° West 494 568 28,500 -2,520 Descending FlightAware UK
12:01PM 49.6942 -8.6714 250° West 494 568 28,500 4,080 Level FlightAware UK
12:01PM 49.6930 -8.6790 250° West 482 555 30,000  Climbing FlightAware
12:02PM 49.6758 -8.7489 250° West 496 571 28,500  Descending FlightAware UK
12:02PM 49.6570 -8.8270 250° West 483 556 30,000  Climbing FlightAware
12:02PM 49.6434 -8.8843 250° West 498 573 28,500  Descending FlightAware UK
12:03PM 49.6260 -8.9550 250° West 479 551 30,000 1,380 Climbing FlightAware
12:03PM 49.5970 -9.0770 250° West 479 551 30,000  Level FlightAware
12:04PM 49.5610 -9.2220 249° West 477 549 30,000  Level FlightAware
12:05PM 49.5320 -9.3420 250° West 477 549 30,000  Level FlightAware
12:06PM 49.4960 -9.4890 249° West 477 549 30,000  Level FlightAware
12:06PM 49.4660 -9.6090 249° West 477 549 30,000  Level FlightAware
12:07PM 49.4390 -9.7170 249° West 477 549 30,000  Level FlightAware
12:08PM 49.4120 -9.8250 249° West 477 549 30,000  Level FlightAware
12:08PM 49.3790 -9.9590 249° West 477 549 30,000  Level FlightAware
12:09PM 49.3520 -10.0670 249° West 477 549 30,000  Level FlightAware
12:10PM 49.3250 -10.1740 249° West 477 549 30,000  Level FlightAware
12:10PM 49.2980 -10.2820 249° West 477 549 30,000  Level FlightAware
12:11PM 49.2710 -10.3890 249° West 477 549 30,000  Level FlightAware
12:12PM 49.2440 -10.4970 249° West 477 549 30,000  Level FlightAware
12:12PM 49.2170 -10.6040 249° West 477 549 30,000  Level FlightAware
12:13PM 49.1840 -10.7380 249° West 477 549 30,000  Level FlightAware
12:14PM 49.1570 -10.8450 249° West 477 549 30,000  Level FlightAware
12:15PM 49.1300 -10.9520 249° West 477 549 30,000  Level FlightAware
12:15PM 49.1030 -11.0590 249° West 477 549 30,000  Level FlightAware
12:18PM 48.9915 -11.4526 247° West  Level FlightAware Approximate
12:19PM 48.9408 -11.6296 246° West  Level FlightAware Approximate
12:20PM 48.8897 -11.8062 246° West  Level FlightAware Approximate
12:21PM 48.8385 -11.9825 246° West  Level FlightAware Approximate
12:22PM 48.7571 -12.1296 228° Southwest  Level FlightAware Approximate
12:23PM 48.6724 -12.2726 228° Southwest  Level FlightAware Approximate
12:24PM 48.5876 -12.4152 228° Southwest  Level FlightAware Approximate
12:25PM 48.5026 -12.5574 228° Southwest  Level FlightAware Approximate
12:26PM 48.4174 -12.6990 228° Southwest  Level FlightAware Approximate
12:27PM 48.3321 -12.8401 228° Southwest  Level FlightAware Approximate
12:28PM 48.2466 -12.9808 228° Southwest  Level FlightAware Approximate
12:29PM 48.1609 -13.1211 228° Southwest  Level FlightAware Approximate
12:30PM 48.0750 -13.2608 227° Southwest  Level FlightAware Approximate
12:31PM 47.9890 -13.4001 227° Southwest  Level FlightAware Approximate
12:32PM 47.9031 -13.5393 228° Southwest  Level FlightAware Approximate
12:33PM 47.8183 -13.6798 228° Southwest  Level FlightAware Approximate
12:34PM 47.7334 -13.8199 228° Southwest  Level FlightAware Approximate
12:35PM 47.6483 -13.9595 228° Southwest  Level FlightAware Approximate
12:36PM 47.5631 -14.0987 228° Southwest  Level FlightAware Approximate
12:37PM 47.4776 -14.2375 228° Southwest  Level FlightAware Approximate
12:38PM 47.3920 -14.3757 228° Southwest  Level FlightAware Approximate
12:39PM 47.3063 -14.5136 227° Southwest  Level FlightAware Approximate
12:40PM 47.2203 -14.6510 227° Southwest  Level FlightAware Approximate
12:41PM 47.1342 -14.7879 227° Southwest  Level FlightAware Approximate
12:42PM 47.0480 -14.9244 227° Southwest  Level FlightAware Approximate
12:43PM 46.9731 -15.0726 241° Southwest  Level FlightAware Approximate
12:44PM 46.9123 -15.2356 241° Southwest  Level FlightAware Approximate
12:45PM 46.8514 -15.3983 241° Southwest  Level FlightAware Approximate
12:46PM 46.7902 -15.5605 241° Southwest  Level FlightAware Approximate
12:47PM 46.7287 -15.7225 241° Southwest  Level FlightAware Approximate
12:48PM 46.6671 -15.8840 241° Southwest  Level FlightAware Approximate
12:49PM 46.6052 -16.0452 241° Southwest  Level FlightAware Approximate
12:50PM 46.5431 -16.2060 241° Southwest  Level FlightAware Approximate
12:51PM 46.4808 -16.3664 241° Southwest  Level FlightAware Approximate
12:52PM 46.4182 -16.5265 240° Southwest  Level FlightAware Approximate
12:53PM 46.3554 -16.6862 240° Southwest  Level FlightAware Approximate
12:54PM 46.2932 -16.8461 241° Southwest  Level FlightAware Approximate
12:55PM 46.2307 -17.0057 241° Southwest  Level FlightAware Approximate
12:56PM 46.1681 -17.1650 240° Southwest  Level FlightAware Approximate
12:57PM 46.1052 -17.3238 240° Southwest  Level FlightAware Approximate
12:58PM 46.0421 -17.4824 240° Southwest  Level FlightAware Approximate
12:59PM 45.9788 -17.6405 240° Southwest  Level FlightAware Approximate
01:00PM 45.9152 -17.7983 240° Southwest  Level FlightAware Approximate
01:01PM 45.8515 -17.9557 240° Southwest  Level FlightAware Approximate
01:02PM 45.7875 -18.1128 240° Southwest  Level FlightAware Approximate
01:03PM 45.7233 -18.2695 240° Southwest  Level FlightAware Approximate
01:04PM 45.6591 -18.4261 240° Southwest  Level FlightAware Approximate
01:05PM 45.5952 -18.5827 240° Southwest  Level FlightAware Approximate
01:06PM 45.5311 -18.7389 240° Southwest  Level FlightAware Approximate
01:07PM 45.4667 -18.8948 240° Southwest  Level FlightAware Approximate
01:08PM 45.4022 -19.0503 239° Southwest  Level FlightAware Approximate
01:09PM 45.3374 -19.2054 239° Southwest  Level FlightAware Approximate
01:10PM 45.2724 -19.3602 239° Southwest  Level FlightAware Approximate
01:11PM 45.2072 -19.5147 239° Southwest  Level FlightAware Approximate
01:12PM 45.1418 -19.6687 239° Southwest  Level FlightAware Approximate
01:13PM 45.0762 -19.8225 239° Southwest  Level FlightAware Approximate
01:14PM 45.0104 -19.9758 239° Southwest  Level FlightAware Approximate
01:15PM 44.9652 -20.1427 251° West  Level FlightAware Approximate
01:16PM 44.9236 -20.3120 251° West  Level FlightAware Approximate
01:17PM 44.8819 -20.4810 251° West  Level FlightAware Approximate
01:18PM 44.8398 -20.6497 251° West  Level FlightAware Approximate
01:19PM 44.7975 -20.8183 251° West  Level FlightAware Approximate
01:20PM 44.7550 -20.9865 250° West  Level FlightAware Approximate
01:21PM 44.7122 -21.1545 250° West  Level FlightAware Approximate
01:22PM 44.6692 -21.3223 250° West  Level FlightAware Approximate
01:23PM 44.6259 -21.4898 250° West  Level FlightAware Approximate
01:24PM 44.5824 -21.6570 250° West  Level FlightAware Approximate
01:25PM 44.5386 -21.8241 250° West  Level FlightAware Approximate
01:26PM 44.4946 -21.9908 250° West  Level FlightAware Approximate
01:27PM 44.4503 -22.1573 250° West  Level FlightAware Approximate
01:28PM 44.4058 -22.3236 250° West  Level FlightAware Approximate
01:29PM 44.3611 -22.4896 249° West  Level FlightAware Approximate
01:30PM 44.3161 -22.6553 249° West  Level FlightAware Approximate
01:31PM 44.2709 -22.8208 249° West  Level FlightAware Approximate
01:32PM 44.2254 -22.9861 249° West  Level FlightAware Approximate
01:33PM 44.1798 -23.1510 249° West  Level FlightAware Approximate
01:34PM 44.1338 -23.3158 249° West  Level FlightAware Approximate
01:35PM 44.0877 -23.4802 249° West  Level FlightAware Approximate
01:36PM 44.0413 -23.6444 249° West  Level FlightAware Approximate
01:37PM 43.9946 -23.8084 248° West  Level FlightAware Approximate
01:38PM 43.9478 -23.9721 248° West  Level FlightAware Approximate
01:39PM 43.9007 -24.1355 248° West  Level FlightAware Approximate
01:40PM 43.8533 -24.2987 248° West  Level FlightAware Approximate
01:41PM 43.8058 -24.4616 248° West  Level FlightAware Approximate
01:42PM 43.7579 -24.6243 248° West  Level FlightAware Approximate
01:43PM 43.7099 -24.7867 248° West  Level FlightAware Approximate
01:44PM 43.6617 -24.9488 248° West  Level FlightAware Approximate
01:45PM 43.6132 -25.1107 248° West  Level FlightAware Approximate
01:46PM 43.5645 -25.2723 247° West  Level FlightAware Approximate
01:47PM 43.5155 -25.4337 247° West  Level FlightAware Approximate
01:48PM 43.4664 -25.5948 247° West  Level FlightAware Approximate
01:49PM 43.4170 -25.7556 247° West  Level FlightAware Approximate
01:50PM 43.3673 -25.9162 247° West  Level FlightAware Approximate
01:51PM 43.3175 -26.0765 247° West  Level FlightAware Approximate
01:52PM 43.2674 -26.2365 247° West  Level FlightAware Approximate
01:53PM 43.2171 -26.3963 247° West  Level FlightAware Approximate
01:54PM 43.1666 -26.5558 247° West  Level FlightAware Approximate
01:55PM 43.1159 -26.7151 246° West  Level FlightAware Approximate
01:56PM 43.0649 -26.8740 246° West  Level FlightAware Approximate
01:57PM 43.0138 -27.0328 246° West  Level FlightAware Approximate
01:58PM 42.9624 -27.1912 246° West  Level FlightAware Approximate
01:59PM 42.9108 -27.3494 246° West  Level FlightAware Approximate
02:00PM 42.8590 -27.5073 246° West  Level FlightAware Approximate
02:01PM 42.8069 -27.6650 246° West  Level FlightAware Approximate
02:02PM 42.7547 -27.8224 246° West  Level FlightAware Approximate
02:03PM 42.7022 -27.9795 246° West  Level FlightAware Approximate
02:04PM 42.6495 -28.1364 245° Southwest  Level FlightAware Approximate
02:05PM 42.5966 -28.2929 245° Southwest  Level FlightAware Approximate
02:06PM 42.5435 -28.4493 245° Southwest  Level FlightAware Approximate
02:07PM 42.4901 -28.6053 245° Southwest  Level FlightAware Approximate
02:08PM 42.4366 -28.7611 245° Southwest  Level FlightAware Approximate
02:09PM 42.3828 -28.9167 245° Southwest  Level FlightAware Approximate
02:10PM 42.3289 -29.0719 245° Southwest  Level FlightAware Approximate
02:11PM 42.2747 -29.2269 245° Southwest  Level FlightAware Approximate
02:12PM 42.2203 -29.3817 245° Southwest  Level FlightAware Approximate
02:13PM 42.1657 -29.5361 245° Southwest  Level FlightAware Approximate
02:14PM 42.1110 -29.6903 244° Southwest  Level FlightAware Approximate
02:15PM 42.0560 -29.8442 244° Southwest  Level FlightAware Approximate
02:16PM 42.0008 -29.9979 244° Southwest  Level FlightAware Approximate
02:17PM 41.9483 -30.1532 246° West  Level FlightAware Approximate
02:18PM 41.8957 -30.3082 246° West  Level FlightAware Approximate
02:19PM 41.8429 -30.4630 245° Southwest  Level FlightAware Approximate
02:20PM 41.7899 -30.6175 245° Southwest  Level FlightAware Approximate
02:21PM 41.7366 -30.7718 245° Southwest  Level FlightAware Approximate
02:22PM 41.6832 -30.9258 245° Southwest  Level FlightAware Approximate
02:23PM 41.6296 -31.0796 245° Southwest  Level FlightAware Approximate
02:24PM 41.5757 -31.2331 245° Southwest  Level FlightAware Approximate
02:25PM 41.5217 -31.3864 245° Southwest  Level FlightAware Approximate
02:26PM 41.4674 -31.5394 245° Southwest  Level FlightAware Approximate
02:27PM 41.4130 -31.6921 245° Southwest  Level FlightAware Approximate
02:28PM 41.3583 -31.8446 245° Southwest  Level FlightAware Approximate
02:29PM 41.3035 -31.9968 244° Southwest  Level FlightAware Approximate
02:30PM 41.2484 -32.1488 244° Southwest  Level FlightAware Approximate
02:31PM 41.1931 -32.3005 244° Southwest  Level FlightAware Approximate
02:32PM 41.1377 -32.4520 244° Southwest  Level FlightAware Approximate
02:33PM 41.0821 -32.6032 244° Southwest  Level FlightAware Approximate
02:34PM 41.0262 -32.7541 244° Southwest  Level FlightAware Approximate
02:35PM 40.9701 -32.9048 244° Southwest  Level FlightAware Approximate
02:36PM 40.9139 -33.0552 244° Southwest  Level FlightAware Approximate
02:37PM 40.8575 -33.2054 244° Southwest  Level FlightAware Approximate
02:38PM 40.8008 -33.3554 244° Southwest  Level FlightAware Approximate
02:39PM 40.7440 -33.5050 243° Southwest  Level FlightAware Approximate
02:40PM 40.6870 -33.6544 243° Southwest  Level FlightAware Approximate
02:41PM 40.6298 -33.8036 243° Southwest  Level FlightAware Approximate
02:42PM 40.5724 -33.9525 243° Southwest  Level FlightAware Approximate
02:43PM 40.5148 -34.1011 243° Southwest  Level FlightAware Approximate
02:44PM 40.4570 -34.2495 243° Southwest  Level FlightAware Approximate
02:45PM 40.3990 -34.3976 243° Southwest  Level FlightAware Approximate
02:46PM 40.3409 -34.5455 243° Southwest  Level FlightAware Approximate
02:47PM 40.2825 -34.6931 243° Southwest  Level FlightAware Approximate
02:48PM 40.2240 -34.8405 243° Southwest  Level FlightAware Approximate
02:49PM 40.1653 -34.9876 242° Southwest  Level FlightAware Approximate
02:50PM 40.1064 -35.1345 242° Southwest  Level FlightAware Approximate
02:51PM 40.0473 -35.2811 242° Southwest  Level FlightAware Approximate
02:52PM 39.9880 -35.4274 242° Southwest  Level FlightAware Approximate
02:53PM 39.9285 -35.5735 242° Southwest  Level FlightAware Approximate
02:54PM 39.8689 -35.7194 242° Southwest  Level FlightAware Approximate
02:55PM 39.8091 -35.8649 242° Southwest  Level FlightAware Approximate
02:56PM 39.7490 -36.0103 242° Southwest  Level FlightAware Approximate
02:57PM 39.6889 -36.1554 242° Southwest  Level FlightAware Approximate
02:58PM 39.6285 -36.3002 242° Southwest  Level FlightAware Approximate
02:59PM 39.5679 -36.4448 242° Southwest  Level FlightAware Approximate
03:00PM 39.5072 -36.5891 241° Southwest  Level FlightAware Approximate
03:01PM 39.4463 -36.7332 241° Southwest  Level FlightAware Approximate
03:02PM 39.3852 -36.8770 241° Southwest  Level FlightAware Approximate
03:03PM 39.3240 -37.0205 241° Southwest  Level FlightAware Approximate
03:04PM 39.2625 -37.1638 241° Southwest  Level FlightAware Approximate
03:05PM 39.2009 -37.3069 241° Southwest  Level FlightAware Approximate
03:06PM 39.1391 -37.4497 241° Southwest  Level FlightAware Approximate
03:07PM 39.0771 -37.5923 241° Southwest  Level FlightAware Approximate
03:08PM 39.0150 -37.7346 241° Southwest  Level FlightAware Approximate
03:08PM 38.0000 -40.0000 253° West 501 577 36,000  Level New York Oceanic (ODAPS)
03:09PM 38.9527 -37.8766 241° Southwest  Level FlightAware Approximate
03:10PM 38.8902 -38.0185 241° Southwest  Level FlightAware Approximate
03:11PM 38.8276 -38.1600 240° Southwest  Level FlightAware Approximate
03:12PM 38.7648 -38.3013 240° Southwest  Level FlightAware Approximate
03:13PM 38.7018 -38.4424 240° Southwest  Level FlightAware Approximate
03:14PM 38.6386 -38.5832 240° Southwest  Level FlightAware Approximate
03:15PM 37.7429 -41.0176 252° West 501 577 36,000  Level FlightAware Transoceanic
03:16PM 37.6992 -41.1865 252° West 501 577 36,000  Level FlightAware Transoceanic
03:17PM 37.6553 -41.3552 252° West 501 577 36,000  Level FlightAware Transoceanic
03:18PM 37.6111 -41.5237 252° West 501 577 36,000  Level FlightAware Transoceanic
03:19PM 37.5667 -41.6920 252° West 501 577 36,000  Level FlightAware Transoceanic
03:20PM 37.5220 -41.8601 251° West 501 577 36,000  Level FlightAware Transoceanic
03:21PM 37.4771 -42.0280 251° West 501 577 36,000  Level FlightAware Transoceanic
03:22PM 37.4320 -42.1956 251° West 501 577 36,000  Level FlightAware Transoceanic
03:22PM 37.4167 -42.2333 251° West 493 567 36,000  Level New York Oceanic (ODAPS)
03:23PM 37.3866 -42.3632 251° West 501 577 36,000  Level FlightAware Transoceanic
03:24PM 37.3410 -42.5304 251° West 501 577 36,000  Level FlightAware Transoceanic
03:25PM 37.2952 -42.6975 251° West 501 577 36,000  Level FlightAware Transoceanic
03:26PM 37.2491 -42.8644 251° West 501 577 36,000  Level FlightAware Transoceanic
03:27PM 37.2028 -43.0311 251° West 501 577 36,000  Level FlightAware Transoceanic
03:28PM 37.1482 -43.2099 251° West 493 567 36,000  Level FlightAware Transoceanic
03:29PM 37.1027 -43.3720 251° West 493 567 36,000  Level FlightAware Transoceanic
03:30PM 37.0570 -43.5339 250° West 493 567 36,000  Level FlightAware Transoceanic
03:31PM 37.0110 -43.6956 250° West 493 567 36,000  Level FlightAware Transoceanic
03:32PM 36.9649 -43.8571 250° West 493 567 36,000  Level FlightAware Transoceanic
03:33PM 36.9185 -44.0185 250° West 493 567 36,000  Level FlightAware Transoceanic
03:34PM 36.8719 -44.1796 250° West 493 567 36,000  Level FlightAware Transoceanic
03:35PM 36.8250 -44.3405 250° West 493 567 36,000  Level FlightAware Transoceanic
03:36PM 36.7780 -44.5012 250° West 493 567 36,000  Level FlightAware Transoceanic
03:37PM 36.7307 -44.6617 250° West 493 567 36,000  Level FlightAware Transoceanic
03:38PM 36.6833 -44.8220 250° West 493 567 36,000  Level FlightAware Transoceanic
03:39PM 36.6356 -44.9822 250° West 493 567 36,000  Level FlightAware Transoceanic
03:40PM 36.5877 -45.1421 249° West 493 567 36,000  Level FlightAware Transoceanic
03:41PM 36.5395 -45.3018 249° West 493 567 36,000  Level FlightAware Transoceanic
03:42PM 36.4912 -45.4613 249° West 493 567 36,000  Level FlightAware Transoceanic
03:42PM 36.4667 -45.5667 249° West 496 571 36,000  Level New York Oceanic (ODAPS)
03:43PM 36.4427 -45.6207 249° West 493 567 36,000  Level FlightAware Transoceanic
03:44PM 36.3939 -45.7798 249° West 493 567 36,000  Level FlightAware Transoceanic
03:45PM 36.3450 -45.9387 249° West 493 567 36,000  Level FlightAware Transoceanic
03:46PM 36.2958 -46.0974 249° West 493 567 36,000  Level FlightAware Transoceanic
03:47PM 36.2464 -46.2560 249° West 493 567 36,000  Level FlightAware Transoceanic
03:48PM 36.1968 -46.4143 249° West 493 567 36,000  Level FlightAware Transoceanic
03:49PM 36.1277 -46.6517 248° West 496 571 36,000  Level FlightAware Transoceanic
03:50PM 36.0784 -46.8060 248° West 496 571 36,000  Level FlightAware Transoceanic
03:51PM 36.0290 -46.9600 248° West 496 571 36,000  Level FlightAware Transoceanic
03:52PM 35.9794 -47.1138 248° West 496 571 36,000  Level FlightAware Transoceanic
03:53PM 35.9296 -47.2675 248° West 496 571 36,000  Level FlightAware Transoceanic
03:54PM 35.8796 -47.4210 248° West 496 571 36,000  Level FlightAware Transoceanic
03:55PM 35.8293 -47.5742 248° West 496 571 36,000  Level FlightAware Transoceanic
03:56PM 35.7789 -47.7273 248° West 496 571 36,000  Level FlightAware Transoceanic
03:57PM 35.7283 -47.8802 248° West 496 571 36,000  Level FlightAware Transoceanic
03:58PM 35.6776 -48.0329 248° West 496 571 36,000  Level FlightAware Transoceanic
03:59PM 35.6266 -48.1853 248° West 496 571 36,000  Level FlightAware Transoceanic
04:00PM 35.5754 -48.3376 248° West 496 571 36,000  Level FlightAware Transoceanic
04:01PM 35.5240 -48.4897 247° West 496 571 36,000  Level FlightAware Transoceanic
04:02PM 35.4725 -48.6416 247° West 496 571 36,000  Level FlightAware Transoceanic
04:02PM 35.4333 -48.7500 247° West 481 554 36,000  Level New York Oceanic (ODAPS)
04:03PM 35.4207 -48.7934 247° West 496 571 36,000  Level FlightAware Transoceanic
04:04PM 35.3688 -48.9449 247° West 496 571 36,000  Level FlightAware Transoceanic
04:05PM 35.3167 -49.0962 247° West 496 571 36,000  Level FlightAware Transoceanic
04:06PM 35.2644 -49.2473 247° West 496 571 36,000  Level FlightAware Transoceanic
04:07PM 35.2119 -49.3982 247° West 496 571 36,000  Level FlightAware Transoceanic
04:08PM 35.1592 -49.5490 247° West 496 571 36,000  Level FlightAware Transoceanic
04:09PM 35.1095 -49.6888 247° West 481 554 36,000  Level FlightAware Transoceanic
04:10PM 35.0549 -49.8445 247° West 481 554 36,000  Level FlightAware Transoceanic
04:11PM 35.0000 -50.0000 259° West 481 554 36,000  Level FlightAware Transoceanic
04:11PM 35.0000 -50.0000 259° West 469 540 36,000  Level New York Oceanic (ODAPS)
04:12PM 34.9755 -50.1572 259° West 481 554 36,000  Level FlightAware Transoceanic
04:13PM 34.9508 -50.3144 259° West 481 554 36,000  Level FlightAware Transoceanic
04:14PM 34.9259 -50.4715 259° West 481 554 36,000  Level FlightAware Transoceanic
04:15PM 34.9007 -50.6284 259° West 481 554 36,000  Level FlightAware Transoceanic
04:16PM 34.8754 -50.7853 259° West 481 554 36,000  Level FlightAware Transoceanic
04:17PM 34.8522 -50.9278 259° West 469 540 36,000  Level FlightAware Transoceanic
04:18PM 34.8269 -51.0821 259° West 469 540 36,000  Level FlightAware Transoceanic
04:19PM 34.8014 -51.2363 259° West 469 540 36,000  Level FlightAware Transoceanic
04:20PM 34.7757 -51.3904 258° West 469 540 36,000  Level FlightAware Transoceanic
04:21PM 34.7498 -51.5444 258° West 469 540 36,000  Level FlightAware Transoceanic
04:22PM 34.7237 -51.6984 258° West 469 540 36,000  Level FlightAware Transoceanic
04:23PM 34.6974 -51.8522 258° West 469 540 36,000  Level FlightAware Transoceanic
04:23PM 34.7000 -51.8333 258° West 465 535 36,000  Level New York Oceanic (ODAPS)
04:24PM 34.6710 -52.0059 258° West 469 540 36,000  Level FlightAware Transoceanic
04:25PM 34.6443 -52.1595 258° West 469 540 36,000  Level FlightAware Transoceanic
04:26PM 34.6174 -52.3131 258° West 469 540 36,000  Level FlightAware Transoceanic
04:27PM 34.5904 -52.4665 258° West 469 540 36,000  Level FlightAware Transoceanic
04:28PM 34.5631 -52.6198 258° West 469 540 36,000  Level FlightAware Transoceanic
04:29PM 34.5381 -52.7564 258° West 465 535 36,000  Level FlightAware Transoceanic
04:30PM 34.5104 -52.9098 258° West 465 535 36,000  Level FlightAware Transoceanic
04:31PM 34.4826 -53.0632 258° West 465 535 36,000  Level FlightAware Transoceanic
04:32PM 34.4545 -53.2165 257° West 465 535 36,000  Level FlightAware Transoceanic
04:33PM 34.4263 -53.3697 257° West 465 535 36,000  Level FlightAware Transoceanic
04:34PM 34.3979 -53.5227 257° West 465 535 36,000  Level FlightAware Transoceanic
04:35PM 34.3693 -53.6757 257° West 465 535 36,000  Level FlightAware Transoceanic
04:36PM 34.3405 -53.8286 257° West 465 535 36,000  Level FlightAware Transoceanic
04:37PM 34.3115 -53.9813 257° West 465 535 36,000  Level FlightAware Transoceanic
04:38PM 34.2823 -54.1340 257° West 465 535 36,000  Level FlightAware Transoceanic
04:39PM 34.2529 -54.2865 257° West 465 535 36,000  Level FlightAware Transoceanic
04:40PM 34.2233 -54.4390 257° West 465 535 36,000  Level FlightAware Transoceanic
04:41PM 34.1936 -54.5913 257° West 465 535 36,000  Level FlightAware Transoceanic
04:42PM 34.1636 -54.7435 257° West 465 535 36,000  Level FlightAware Transoceanic
04:43PM 34.1335 -54.8956 256° West 465 535 36,000 1,080 Level FlightAware Transoceanic
04:43PM 34.1333 -54.9000 256° West 462 532 38,000  Climbing New York Oceanic (ODAPS)
04:44PM 34.1032 -55.0476 256° West 465 535 36,000 -1,740 Descending FlightAware Transoceanic
04:45PM 34.0727 -55.1995 256° West 465 535 36,000  Level FlightAware Transoceanic
04:46PM 34.0420 -55.3513 256° West 465 535 36,000  Level FlightAware Transoceanic
04:47PM 34.0111 -55.5030 256° West 465 535 36,000  Level FlightAware Transoceanic
04:48PM 33.9801 -55.6546 256° West 465 535 36,000  Level FlightAware Transoceanic
04:49PM 33.9488 -55.8060 256° West 465 535 36,000 960 Level FlightAware Transoceanic
04:50PM 33.9235 -55.9306 256° West 462 532 38,000 960 Climbing FlightAware Transoceanic
04:51PM 33.8928 -56.0774 256° West 462 532 38,000  Level FlightAware Transoceanic
04:52PM 33.8620 -56.2241 256° West 462 532 38,000  Level FlightAware Transoceanic
04:53PM 33.8310 -56.3707 256° West 462 532 38,000  Level FlightAware Transoceanic
04:54PM 33.7998 -56.5172 256° West 462 532 38,000  Level FlightAware Transoceanic
04:55PM 33.7684 -56.6636 256° West 462 532 38,000  Level FlightAware Transoceanic
04:56PM 33.7369 -56.8098 255° West 462 532 38,000  Level FlightAware Transoceanic
04:57PM 33.7052 -56.9560 255° West 462 532 38,000  Level FlightAware Transoceanic
04:58PM 33.6733 -57.1021 255° West 462 532 38,000  Level FlightAware Transoceanic
04:59PM 33.6412 -57.2480 255° West 462 532 38,000  Level FlightAware Transoceanic
05:00PM 33.6090 -57.3939 255° West 462 532 38,000  Level FlightAware Transoceanic
05:01PM 33.5766 -57.5396 255° West 462 532 38,000  Level FlightAware Transoceanic
05:02PM 33.5440 -57.6852 255° West 462 532 38,000  Level FlightAware Transoceanic
05:03PM 33.5113 -57.8307 255° West 462 532 38,000 540 Level FlightAware Transoceanic
05:03PM 33.5000 -57.8833 255° West 449 517 39,000  Climbing New York Oceanic (ODAPS)
05:04PM 33.4784 -57.9761 255° West 462 532 38,000 -840 Descending FlightAware Transoceanic
05:05PM 33.4453 -58.1214 255° West 462 532 38,000  Level FlightAware Transoceanic
05:06PM 33.4121 -58.2666 255° West 462 532 38,000  Level FlightAware Transoceanic
05:07PM 33.3786 -58.4117 255° West 462 532 38,000  Level FlightAware Transoceanic
05:08PM 33.3451 -58.5566 254° West 462 532 38,000  Level FlightAware Transoceanic
05:09PM 33.3113 -58.7015 254° West 462 532 38,000 480 Level FlightAware Transoceanic
05:10PM 33.2711 -58.8741 254° West 449 517 39,000 480 Climbing FlightAware Transoceanic
05:11PM 33.2378 -59.0152 254° West 449 517 39,000  Level FlightAware Transoceanic
05:12PM 33.2043 -59.1562 254° West 449 517 39,000  Level FlightAware Transoceanic
05:13PM 33.1706 -59.2971 254° West 449 517 39,000  Level FlightAware Transoceanic
05:14PM 33.1368 -59.4379 254° West 449 517 39,000  Level FlightAware Transoceanic
05:15PM 33.1029 -59.5786 254° West 449 517 39,000  Level FlightAware Transoceanic
05:16PM 33.0687 -59.7192 254° West 449 517 39,000  Level FlightAware Transoceanic
05:17PM 33.0344 -59.8596 254° West 449 517 39,000  Level FlightAware Transoceanic
05:18PM 33.0000 -60.0000 252° West 449 517 39,000  Level FlightAware Transoceanic
05:18PM 33.0000 -60.0000 252° West 442 509 39,000  Level New York Oceanic (ODAPS)
05:19PM 32.9635 -60.1338 252° West 449 517 39,000  Level FlightAware Transoceanic
05:20PM 32.9269 -60.2674 252° West 449 517 39,000  Level FlightAware Transoceanic
05:21PM 32.8902 -60.4010 252° West 449 517 39,000  Level FlightAware Transoceanic
05:22PM 32.8533 -60.5345 252° West 449 517 39,000  Level FlightAware Transoceanic
05:23PM 32.8162 -60.6678 252° West 449 517 39,000  Level FlightAware Transoceanic
05:23PM 32.8000 -60.7500 251° West 442 509 39,000  Level New York Oceanic (ODAPS)
05:24PM 32.7790 -60.8010 252° West 442 509 39,000  Level FlightAware Transoceanic
05:25PM 32.7417 -60.9341 252° West 442 509 39,000  Level FlightAware Transoceanic
05:26PM 32.7043 -61.0671 251° West 442 509 39,000  Level FlightAware Transoceanic
05:27PM 32.6667 -61.2000 265° West 442 509 39,000  Level FlightAware Transoceanic
05:27PM 32.6667 -61.2000 265° West 444 511 39,000  Level New York Oceanic (ODAPS)
05:28PM 32.6556 -61.3519 265° West 442 509 39,000  Level FlightAware Transoceanic
05:29PM 32.6444 -61.5038 265° West 442 509 39,000  Level FlightAware Transoceanic
05:30PM 32.6330 -61.6556 265° West 442 509 39,000  Level FlightAware Transoceanic
05:31PM 32.6214 -61.8074 265° West 442 509 39,000  Level FlightAware Transoceanic
05:32PM 32.6096 -61.9592 265° West 442 509 39,000  Level FlightAware Transoceanic
05:33PM 32.6007 -62.0730 265° West 444 511 39,000  Level FlightAware Transoceanic
05:34PM 32.5891 -62.2183 265° West 444 511 39,000  Level FlightAware Transoceanic
05:35PM 32.5774 -62.3637 264° West 444 511 39,000  Level FlightAware Transoceanic
05:36PM 32.5654 -62.5089 264° West 444 511 39,000  Level FlightAware Transoceanic
05:37PM 32.5533 -62.6542 264° West 444 511 39,000  Level FlightAware Transoceanic
05:38PM 32.5411 -62.7994 264° West 444 511 39,000  Level FlightAware Transoceanic
05:39PM 32.5287 -62.9446 264° West 444 511 39,000  Level FlightAware Transoceanic
05:40PM 32.5161 -63.0897 264° West 444 511 39,000  Level FlightAware Transoceanic
05:41PM 32.5033 -63.2348 264° West 444 511 39,000  Level FlightAware Transoceanic
05:42PM 32.4904 -63.3798 264° West 444 511 39,000  Level FlightAware Transoceanic
05:43PM 32.4773 -63.5248 264° West 444 511 39,000  Level FlightAware Transoceanic
05:44PM 32.4641 -63.6698 264° West 444 511 39,000  Level FlightAware Transoceanic
05:44PM 32.4667 -63.7000 263° West 456 525 39,000  Level New York Oceanic (ODAPS)
05:45PM 32.4506 -63.8147 264° West 444 511 39,000  Level FlightAware Transoceanic
05:46PM 32.4371 -63.9596 264° West 444 511 39,000  Level FlightAware Transoceanic
05:47PM 32.4233 -64.1044 264° West 444 511 39,000  Level FlightAware Transoceanic
05:48PM 32.4094 -64.2492 263° West 444 511 39,000  Level FlightAware Transoceanic
05:49PM 32.3953 -64.3940 263° West 444 511 39,000  Level FlightAware Transoceanic
05:50PM 32.3814 -64.5430 263° West 456 525 39,000  Level FlightAware Transoceanic
05:50PM 32.3667 -64.6833 271° West 451 519 39,000  Level New York Oceanic (ODAPS)
05:51PM 32.3667 -64.6833 271° West 456 525 39,000  Level FlightAware Transoceanic
05:52PM 32.3680 -64.8377 271° West 456 525 39,000  Level FlightAware Transoceanic
05:53PM 32.3692 -64.9920 270° West 456 525 39,000  Level FlightAware Transoceanic
05:54PM 32.3701 -65.1464 270° West 456 525 39,000  Level FlightAware Transoceanic
05:55PM 32.3709 -65.3008 270° West 456 525 39,000  Level FlightAware Transoceanic
05:56PM 32.3715 -65.4551 270° West 456 525 39,000  Level FlightAware Transoceanic
05:57PM 32.3718 -65.5709 270° West 451 519 39,000  Level FlightAware Transoceanic
05:58PM 32.3721 -65.7188 270° West 451 519 39,000  Level FlightAware Transoceanic
05:59PM 32.3722 -65.8668 270° West 451 519 39,000  Level FlightAware Transoceanic
06:00PM 32.3721 -66.0147 270° West 451 519 39,000  Level FlightAware Transoceanic
06:00PM 32.3667 -66.0833 270° West 452 520 39,000  Level New York Oceanic (ODAPS)
06:01PM 32.3718 -66.1626 270° West 451 519 39,000  Level FlightAware Transoceanic
06:02PM 32.3714 -66.3106 270° West 451 519 39,000  Level FlightAware Transoceanic
06:03PM 32.3708 -66.4585 270° West 451 519 39,000  Level FlightAware Transoceanic
06:04PM 32.3700 -66.6064 270° West 451 519 39,000  Level FlightAware Transoceanic
06:04PM 32.3667 -66.7167 270° West 436 502 39,000  Level New York Oceanic (ODAPS)
06:05PM 32.3690 -66.7543 270° West 451 519 39,000  Level FlightAware Transoceanic
06:06PM 32.3644 -66.9434 270° West 452 520 39,000  Level FlightAware Transoceanic
06:07PM 32.3634 -67.0868 270° West 452 520 39,000  Level FlightAware Transoceanic
06:07PM 32.3667 -67.2000 269° West 441 507 39,000  Level New York Oceanic (ODAPS)
06:08PM 32.3623 -67.2301 269° West 452 520 39,000  Level FlightAware Transoceanic
06:09PM 32.3610 -67.3734 269° West 452 520 39,000  Level FlightAware Transoceanic
06:10PM 32.3598 -67.5440 269° West 436 502 39,000  Level FlightAware Transoceanic
06:11PM 32.3582 -67.6819 269° West 436 502 39,000  Level FlightAware Transoceanic
06:12PM 32.3563 -67.8198 269° West 436 502 39,000  Level FlightAware Transoceanic
06:13PM 32.3544 -67.9576 269° West 436 502 39,000  Level FlightAware Transoceanic
06:14PM 32.3529 -68.0857 269° West 441 507 39,000  Level FlightAware Transoceanic
06:15PM 32.3500 -68.2333 265° West 441 507 39,000  Level FlightAware Transoceanic
06:15PM 32.3500 -68.2333 265° West 428 493 39,000  Level New York Oceanic (ODAPS)
06:16PM 32.3383 -68.3809 265° West 441 507 39,000  Level FlightAware Transoceanic
06:17PM 32.3265 -68.5284 265° West 441 507 39,000  Level FlightAware Transoceanic
06:18PM 32.3144 -68.6758 264° West 441 507 39,000  Level FlightAware Transoceanic
06:19PM 32.3022 -68.8232 264° West 441 507 39,000  Level FlightAware Transoceanic
06:20PM 32.2898 -68.9706 264° West 441 507 39,000  Level FlightAware Transoceanic
06:21PM 32.2798 -69.0894 264° West 428 493 39,000  Level FlightAware Transoceanic
06:22PM 32.2675 -69.2320 264° West 428 493 39,000  Level FlightAware Transoceanic
06:23PM 32.2551 -69.3745 264° West 428 493 39,000  Level FlightAware Transoceanic
06:24PM 32.2425 -69.5170 264° West 428 493 39,000  Level FlightAware Transoceanic
06:24PM 32.2500 -69.5333 264° West 433 498 39,000  Level New York Oceanic (ODAPS)
06:25PM 32.2297 -69.6594 264° West 428 493 39,000  Level FlightAware Transoceanic
06:26PM 32.2168 -69.8018 264° West 428 493 39,000  Level FlightAware Transoceanic
06:27PM 32.2037 -69.9441 264° West 428 493 39,000  Level FlightAware Transoceanic
06:28PM 32.1905 -70.0864 264° West 428 493 39,000  Level FlightAware Transoceanic
06:29PM 32.1771 -70.2287 264° West 428 493 39,000  Level FlightAware Transoceanic
06:30PM 32.1636 -70.3709 264° West 428 493 39,000  Level FlightAware Transoceanic
06:31PM 32.1686 -70.4019 263° West 433 498 39,000  Level FlightAware Transoceanic
06:32PM 32.1544 -70.5465 263° West 433 498 39,000  Level FlightAware Transoceanic
06:33PM 32.1401 -70.6910 263° West 433 498 39,000  Level FlightAware Transoceanic
06:34PM 32.1256 -70.8356 263° West 433 498 39,000  Level FlightAware Transoceanic
06:35PM 32.1110 -70.9800 263° West 433 498 39,000  Level FlightAware Transoceanic
06:36PM 32.0962 -71.1245 263° West 433 498 39,000  Level FlightAware Transoceanic
06:37PM 32.0812 -71.2688 263° West 433 498 39,000  Level FlightAware Transoceanic
06:38PM 32.0661 -71.4132 263° West 433 498 39,000  Level FlightAware Transoceanic
06:39PM 32.0508 -71.5574 263° West 433 498 39,000  Level FlightAware Transoceanic
06:40PM 32.0353 -71.7017 263° West 433 498 39,000  Level FlightAware Transoceanic
06:40PM 32.0500 -71.7833 262° West 440 506 39,000  Level New York Oceanic (ODAPS)
06:41PM 32.0197 -71.8458 263° West 433 498 39,000  Level FlightAware Transoceanic
06:42PM 32.0039 -71.9900 263° West 433 498 39,000  Level FlightAware Transoceanic
06:42PM 32.0167 -72.0333 262° West 439 505 39,000  Level New York Oceanic (ODAPS)
06:43PM 31.9880 -72.1341 263° West 433 498 39,000  Level FlightAware Transoceanic
06:44PM 31.9719 -72.2781 262° West 433 498 39,000  Level FlightAware Transoceanic
06:45PM 31.9556 -72.4221 262° West 433 498 39,000 960 Level FlightAware Transoceanic
06:45PM 31.9833 -72.3667 262° West 433 498 40,000  Climbing New York Oceanic (ODAPS)
06:46PM 31.9391 -72.5660 262° West 433 498 39,000 -540 Descending FlightAware Transoceanic
06:47PM 31.9482 -72.6581 262° West 440 506 39,000  Level FlightAware Transoceanic
06:48PM 31.9306 -72.8037 262° West 440 506 39,000  Level FlightAware Transoceanic
06:49PM 31.8988 -73.0322 262° West 439 505 39,000  Level FlightAware Transoceanic
06:50PM 31.8813 -73.1747 262° West 439 505 39,000 480 Level FlightAware Transoceanic
06:51PM 31.8807 -73.2137 262° West 433 498 40,000 480 Climbing FlightAware Transoceanic
06:52PM 31.8630 -73.3547 262° West 433 498 40,000  Level FlightAware Transoceanic
06:53PM 31.8452 -73.4956 262° West 433 498 40,000  Level FlightAware Transoceanic
06:54PM 31.8273 -73.6365 261° West 433 498 40,000  Level FlightAware Transoceanic
06:55PM 31.8092 -73.7773 261° West 433 498 40,000  Level FlightAware Transoceanic
06:55PM 31.8000 -73.8500 261° West 435 501 40,000  Level New York Oceanic (ODAPS)
06:56PM 31.7909 -73.9181 261° West 433 498 40,000  Level FlightAware Transoceanic
06:57PM 31.7724 -74.0587 261° West 433 498 40,000  Level FlightAware Transoceanic
06:58PM 31.7539 -74.1994 261° West 433 498 40,000  Level FlightAware Transoceanic
06:59PM 31.7351 -74.3400 261° West 433 498 40,000  Level FlightAware Transoceanic
07:00PM 31.7162 -74.4805 261° West 433 498 40,000  Level FlightAware Transoceanic
07:01PM 31.6972 -74.6210 261° West 433 498 40,000  Level FlightAware Transoceanic
07:02PM 31.6849 -74.7121 261° West 435 501 40,000  Level FlightAware Transoceanic
07:03PM 31.6652 -74.8555 261° West 435 501 40,000  Level FlightAware Transoceanic
07:03PM 31.6500 -74.9500 261° West 435 501 40,000  Level New York Oceanic (ODAPS)
07:04PM 31.6453 -74.9989 261° West 435 501 40,000  Level FlightAware Transoceanic
07:05PM 31.6253 -75.1423 261° West 435 501 40,000  Level FlightAware Transoceanic
07:05PM 31.6167 -75.1833 261° West 441 507 40,000  Level New York Oceanic (ODAPS)
07:06PM 31.6050 -75.2856 261° West 435 501 40,000  Level FlightAware Transoceanic
07:07PM 31.5847 -75.4288 260° West 435 501 40,000  Level FlightAware Transoceanic
07:08PM 31.5641 -75.5720 260° West 435 501 40,000  Level FlightAware Transoceanic
07:09PM 31.5254 -75.8302 260° West 435 501 40,000  Level FlightAware Transoceanic
07:10PM 31.5041 -75.9766 260° West 435 501 40,000  Level FlightAware Transoceanic
07:11PM 31.4968 -76.0231 260° West 441 507 40,000  Level FlightAware Transoceanic
07:12PM 31.4763 -76.1628 260° West 441 507 40,000  Level FlightAware Transoceanic
07:15PM 31.4322 -76.6044 260° West 482 555 40,000  Level Jacksonville Center
07:16PM 31.4064 -76.7594 259° West 464 534 40,000  Level Jacksonville Center
07:17PM 31.3861 -76.9019 261° West 446 513 40,000  Level Jacksonville Center
07:18PM 31.4128 -77.0267 284° West 426 490 40,000  Level Jacksonville Center
07:19PM 31.5117 -77.1350 317° Northwest 427 491 40,000  Level Jacksonville Center
07:20PM 31.5986 -77.2539 311° West 449 517 40,000  Level Jacksonville Center
07:21PM 31.6850 -77.3683 312° West 466 536 40,000  Level Jacksonville Center
07:22PM 31.7714 -77.4875 310° West 478 550 40,000  Level Jacksonville Center
07:23PM 31.8558 -77.6075 310° West 478 550 40,000  Level Jacksonville Center
07:24PM 31.9400 -77.7225 311° West 478 550 40,000  Level Jacksonville Center
07:25PM 32.0264 -77.8450 310° West 484 557 40,000  Level Jacksonville Center
07:26PM 32.1100 -77.9533 312° West 479 551 40,000  Level Jacksonville Center
07:27PM 32.1958 -78.0739 310° West 479 551 40,000  Level Jacksonville Center
07:28PM 32.2775 -78.1922 309° West 484 557 40,000  Level Jacksonville Center
07:29PM 32.3553 -78.3161 307° West 482 555 40,000  Level Jacksonville Center
07:30PM 32.4103 -78.4561 295° West 469 540 40,000  Level Jacksonville Center
07:31PM 32.4697 -78.6083 295° West 464 534 40,000  Level Jacksonville Center
07:37PM 32.7940 -79.4490 295° West 454 522 40,000  Level FlightAware
07:38PM 32.8430 -79.5770 295° West 447 514 40,000  Level FlightAware
07:39PM 32.8858 -79.6942 295° West 452 520 40,000  Level Jacksonville Center
07:40PM 32.9350 -79.8236 294° West 447 514 40,000  Level Jacksonville Center
07:41PM 32.9864 -79.9581 295° West 447 514 40,000  Level Jacksonville Center
07:42PM 33.0372 -80.0925 294° West 442 509 40,000  Level Jacksonville Center
07:43PM 33.0817 -80.2128 294° West 442 509 40,000  Level Jacksonville Center
07:44PM 33.1325 -80.3450 295° West 442 509 40,000  Level Jacksonville Center
07:45PM 33.1836 -80.5000 292° West 452 520 40,000  Level Jacksonville Center
07:46PM 33.1900 -80.6289 273° West 432 497 40,000 -300 Level Jacksonville Center
07:52PM 33.1670 -81.4630 273° West 416 479 38,000 -300 Descending FlightAware
07:53PM 33.1600 -81.5747 273° West 393 452 38,000 -420 Level Atlanta Center
07:54PM 33.1564 -81.7089 268° West 398 458 37,200 -1,020 Descending Atlanta Center
07:55PM 33.1506 -81.8456 267° West 403 464 36,000 -600 Descending Atlanta Center
07:56PM 33.1447 -81.9869 267° West 420 483 36,000 -60 Level Atlanta Center
07:57PM 33.1408 -82.1311 268° West 430 495 35,900 -1,020 Descending Atlanta Center
08:03PM 33.1090 -83.0050 268° West 394 453 29,000 -1,380 Descending FlightAware
08:03PM 33.1050 -83.0900 267° West 379 436 27,200 -2,340 Descending FlightAware
08:04PM 33.0770 -83.1750 249° West 386 444 25,700 -1,440 Descending FlightAware
08:05PM 33.0200 -83.2610 232° Southwest 377 434 24,800 -2,340 Descending FlightAware
08:05PM 33.0090 -83.3050 253° West 384 442 22,600 -1,920 Descending FlightAware
08:06PM 32.9960 -83.3900 260° West 384 442 22,600 -2,760 Level FlightAware
08:07PM 33.0520 -83.4510 318° Northwest 389 448 19,400 -4,200 Descending FlightAware
08:07PM 33.0900 -83.5330 299° West 376 433 17,700 -2,280 Descending FlightAware
08:08PM 33.1230 -83.6030 299° West 371 427 16,200 -2,220 Descending FlightAware
08:09PM 33.1600 -83.6840 299° West 364 419 14,600 -1,740 Descending FlightAware
08:09PM 33.1920 -83.7520 299° West 355 409 13,800 -600 Descending FlightAware
08:10PM 33.2240 -83.8230 298° West 354 407 13,800  Level FlightAware
08:11PM 33.2570 -83.8840 303° West 359 413 13,800 -540 Level FlightAware
08:13PM 33.3790 -84.0560 310° West 350 403 12,500 -540 Descending FlightAware
08:13PM 33.4120 -84.1080 307° West 350 403 12,500 -300 Level FlightAware
08:15PM 33.5170 -84.2650 309° West 244 281 11,800 -420 Descending FlightAware
08:16PM 33.5440 -84.3150 303° West 235 270 11,500 -960 Descending FlightAware
08:16PM 33.5450 -84.3650 271° West 234 269 10,500 -1,680 Descending FlightAware
08:17PM 33.5450 -84.4030 270° West 233 268 9,600 -1,800 Descending FlightAware
08:17PM 33.5450 -84.4370 270° West 236 272 8,900 -1,680 Descending FlightAware
08:18PM 33.5450 -84.4910 270° West 239 275 7,700 -1,620 Descending FlightAware
08:18PM 33.5450 -84.5140 270° West 237 273 7,300 -1,200 Descending FlightAware
08:19PM 33.5450 -84.5420 270° West 234 269 6,900 -1,320 Descending FlightAware
08:19PM 33.5450 -84.5750 270° West 231 266 6,200 -840 Descending FlightAware
08:20PM 33.5450 -84.6060 270° West 231 266 6,200 -840 Level FlightAware
08:23PM 33.6200 -84.5920 North 231 266 2,700 -1,020 Descending FlightAware
08:24PM 33.6200 -84.5190 90° East 141 162 2,000 -1,200 Descending FlightAware
08:24PM 33.6200 -84.4920 90° East 138 159 1,500 -840 Descending FlightAware
08:25PM 33.6200 -84.4790 90° East 136 157 1,300 -480 Descending FlightAware
08:26PM 33.6200 -84.4420 90° East 140 161 1,000 -360 Descending FlightAware
08:32PM 33.6333 -84.4167 64° Northeast  Level FlightAware Approximate
08:33PM 33.6367 -84.4279 64° Northeast  Level Estimated
08:34PM 33.6367 -84.4279 64° Northeast  Level Estimated